createdAt,value
2018-04-06T00:00:47.040Z,7.94
2018-04-06T00:04:10.345Z,7.97
2018-04-06T00:07:33.724Z,7.93
2018-04-06T00:10:57.116Z,8.10
2018-04-06T00:14:20.412Z,8.10
2018-04-06T00:17:43.757Z,7.91
2018-04-06T00:21:06.975Z,8.03
2018-04-06T00:24:30.258Z,8.02
2018-04-06T00:27:53.543Z,7.95
2018-04-06T00:31:16.836Z,7.78
2018-04-06T00:34:40.118Z,7.86
2018-04-06T00:38:03.475Z,8.01
2018-04-06T00:41:26.757Z,7.82
2018-04-06T00:44:50.041Z,7.81
2018-04-06T00:48:13.323Z,7.88
2018-04-06T00:51:36.856Z,7.93
2018-04-06T00:55:00.299Z,8.06
2018-04-06T00:58:24.340Z,7.97
2018-04-06T01:01:47.666Z,8.03
2018-04-06T01:05:11.748Z,7.92
2018-04-06T01:08:35.772Z,7.90
2018-04-06T01:11:59.872Z,7.96
2018-04-06T01:15:23.150Z,7.90
2018-04-06T01:18:46.438Z,7.87
2018-04-06T01:22:10.824Z,7.96
2018-04-06T01:25:34.106Z,7.84
2018-04-06T01:28:58.396Z,7.91
2018-04-06T01:32:21.890Z,7.75
2018-04-06T01:35:45.989Z,7.69
2018-04-06T01:39:09.266Z,7.71
2018-04-06T01:42:32.552Z,7.59
2018-04-06T01:45:55.846Z,7.55
2018-04-06T01:49:19.208Z,7.70
2018-04-06T01:52:42.465Z,7.47
2018-04-06T01:56:06.568Z,7.60
2018-04-06T01:59:29.920Z,7.43
2018-04-06T02:02:53.209Z,7.21
2018-04-06T02:06:16.480Z,7.34
2018-04-06T02:09:39.814Z,7.14
2018-04-06T02:13:03.115Z,6.99
2018-04-06T02:16:27.234Z,6.82
2018-04-06T02:19:50.480Z,7.13
2018-04-06T02:23:14.576Z,6.88
2018-04-06T02:26:37.866Z,7.00
2018-04-06T02:30:01.150Z,6.82
2018-04-06T02:33:24.444Z,6.89
2018-04-06T02:36:47.737Z,6.73
2018-04-06T02:40:11.085Z,6.57
2018-04-06T02:43:34.383Z,6.53
2018-04-06T02:46:57.646Z,6.37
2018-04-06T02:50:20.966Z,6.38
2018-04-06T02:53:44.285Z,6.45
2018-04-06T02:57:07.656Z,6.44
2018-04-06T03:00:30.938Z,6.43
2018-04-06T03:03:54.194Z,6.24
2018-04-06T03:07:18.287Z,6.38
2018-04-06T03:10:41.571Z,6.31
2018-04-06T03:14:04.864Z,6.25
2018-04-06T03:17:28.245Z,6.29
2018-04-06T03:20:51.578Z,6.24
2018-04-06T03:24:14.877Z,6.26
2018-04-06T03:27:38.141Z,6.20
2018-04-06T03:31:01.430Z,6.18
2018-04-06T03:34:24.713Z,5.90
2018-04-06T03:37:48.003Z,5.94
2018-04-06T03:41:11.407Z,6.03
2018-04-06T03:44:35.430Z,5.98
2018-04-06T03:47:58.727Z,5.97
2018-04-06T03:51:22.007Z,6.12
2018-04-06T03:54:45.289Z,5.91
2018-04-06T03:58:08.598Z,5.81
2018-04-06T04:01:31.965Z,5.92
2018-04-06T04:04:55.319Z,5.96
2018-04-06T04:08:18.638Z,6.10
2018-04-06T04:11:41.931Z,5.88
2018-04-06T04:15:05.201Z,5.72
2018-04-06T04:18:29.353Z,5.59
2018-04-06T04:21:52.586Z,5.60
2018-04-06T04:25:15.961Z,6.06
2018-04-06T04:28:39.224Z,5.75
2018-04-06T04:32:02.555Z,5.69
2018-04-06T04:35:26.538Z,5.51
2018-04-06T04:38:49.919Z,5.67
2018-04-06T04:42:13.218Z,5.64
2018-04-06T04:45:37.358Z,5.56
2018-04-06T04:49:01.432Z,5.49
2018-04-06T04:52:24.806Z,5.58
2018-04-06T04:55:48.116Z,5.56
2018-04-06T04:59:11.427Z,5.70
2018-04-06T05:02:34.775Z,5.66
2018-04-06T05:05:58.050Z,5.75
2018-04-06T05:09:22.338Z,5.67
2018-04-06T05:12:45.678Z,5.65
2018-04-06T05:16:09.783Z,5.84
2018-04-06T05:19:33.900Z,6.18
2018-04-06T05:22:57.220Z,5.99
2018-04-06T05:26:20.532Z,5.98
2018-04-06T05:29:44.244Z,5.84
2018-04-06T05:33:07.629Z,5.79
2018-04-06T05:36:30.969Z,5.71
2018-04-06T05:39:54.348Z,5.91
2018-04-06T05:43:18.393Z,5.86
2018-04-06T05:46:41.705Z,6.03
2018-04-06T05:50:05.222Z,5.87
2018-04-06T05:53:30.082Z,5.74
2018-04-06T05:56:53.458Z,5.64
2018-04-06T06:00:16.897Z,5.94
2018-04-06T06:03:40.963Z,5.78
2018-04-06T06:07:04.315Z,6.01
2018-04-06T06:10:27.728Z,6.30
2018-04-06T06:13:51.318Z,6.55
2018-04-06T06:17:14.571Z,6.36
2018-04-06T06:20:37.937Z,6.33
2018-04-06T06:24:01.458Z,6.42
2018-04-06T06:27:24.976Z,6.56
2018-04-06T06:30:48.252Z,6.82
2018-04-06T06:34:11.594Z,6.70
2018-04-06T06:37:34.870Z,6.61
2018-04-06T06:40:58.148Z,6.76
2018-04-06T06:44:21.518Z,6.84
2018-04-06T06:47:44.789Z,6.77
2018-04-06T06:51:08.083Z,6.91
2018-04-06T06:54:31.387Z,6.94
2018-04-06T06:57:54.650Z,7.01
2018-04-06T07:01:17.924Z,7.12
2018-04-06T07:04:41.200Z,7.09
2018-04-06T07:08:04.480Z,7.25
2018-04-06T07:11:27.771Z,6.91
2018-04-06T07:14:51.832Z,7.20
2018-04-06T07:18:15.858Z,7.33
2018-04-06T07:21:39.902Z,7.50
2018-04-06T07:25:03.162Z,7.67
2018-04-06T07:28:26.484Z,7.60
2018-04-06T07:31:49.763Z,7.88
2018-04-06T07:35:13.047Z,8.09
2018-04-06T07:38:36.302Z,7.83
2018-04-06T07:41:59.567Z,8.11
2018-04-06T07:45:23.759Z,8.26
2018-04-06T07:48:47.116Z,8.40
2018-04-06T07:52:10.380Z,8.18
2018-04-06T07:55:34.364Z,8.27
2018-04-06T07:58:57.679Z,8.35
2018-04-06T08:02:21.193Z,8.65
2018-04-06T08:05:44.520Z,8.66
2018-04-06T08:09:08.603Z,8.62
2018-04-06T08:12:32.161Z,8.70
2018-04-06T08:15:56.243Z,8.99
2018-04-06T08:19:19.539Z,8.89
2018-04-06T08:22:42.848Z,8.93
2018-04-06T08:26:06.929Z,8.72
2018-04-06T08:29:30.286Z,8.87
2018-04-06T08:32:54.337Z,9.24
2018-04-06T08:36:17.923Z,9.04
2018-04-06T08:39:41.227Z,9.21
2018-04-06T08:43:05.674Z,9.57
2018-04-06T08:46:29.938Z,9.49
2018-04-06T08:49:55.754Z,9.75
2018-04-06T08:53:19.160Z,9.84
2018-04-06T08:56:42.518Z,9.85
2018-04-06T09:00:06.544Z,9.87
2018-04-06T09:03:29.876Z,10.07
2018-04-06T09:06:54.017Z,10.33
2018-04-06T09:10:18.303Z,10.93
2018-04-06T09:13:41.568Z,10.52
2018-04-06T09:17:05.723Z,10.82
2018-04-06T09:20:29.095Z,10.95
2018-04-06T09:23:52.356Z,11.15
2018-04-06T09:27:15.693Z,11.75
2018-04-06T09:30:45.156Z,11.71
2018-04-06T09:34:08.614Z,11.40
2018-04-06T09:37:32.110Z,11.66
2018-04-06T09:40:57.449Z,11.75
2018-04-06T09:44:20.724Z,12.14
2018-04-06T09:47:44.026Z,12.26
2018-04-06T09:51:07.306Z,12.05
2018-04-06T09:54:30.603Z,12.67
2018-04-06T09:57:53.918Z,12.46
2018-04-06T10:01:18.106Z,12.26
2018-04-06T10:04:41.426Z,12.48
2018-04-06T10:08:05.492Z,13.00
2018-04-06T10:11:28.772Z,12.88
2018-04-06T10:14:52.120Z,13.29
2018-04-06T10:18:15.502Z,13.36
2018-04-06T10:21:38.786Z,13.33
2018-04-06T10:25:02.834Z,13.18
2018-04-06T10:28:26.118Z,13.25
2018-04-06T10:31:49.450Z,13.38
2018-04-06T10:35:12.758Z,13.65
2018-04-06T10:38:36.133Z,14.15
2018-04-06T10:41:59.411Z,14.08
2018-04-06T10:45:22.836Z,13.51
2018-04-06T10:48:57.814Z,14.14
2018-04-06T10:52:32.648Z,14.37
2018-04-06T10:55:56.682Z,14.57
2018-04-06T10:59:19.987Z,15.02
2018-04-06T11:02:42.841Z,14.85
2018-04-06T11:06:05.810Z,15.15
2018-04-06T11:09:28.808Z,14.93
2018-04-06T11:12:51.690Z,15.28
2018-04-06T11:16:15.297Z,15.35
2018-04-06T11:19:38.337Z,15.62
2018-04-06T11:23:02.091Z,15.48
2018-04-06T11:26:24.915Z,15.87
2018-04-06T11:29:47.784Z,15.91
2018-04-06T11:33:10.848Z,15.85
2018-04-06T11:36:33.716Z,16.24
2018-04-06T11:39:56.628Z,16.18
2018-04-06T11:43:19.483Z,16.05
2018-04-06T11:46:42.459Z,16.00
2018-04-06T11:50:05.358Z,16.11
2018-04-06T11:53:28.174Z,16.26
2018-04-06T11:56:51.017Z,16.39
2018-04-06T12:00:13.848Z,17.05
2018-04-06T12:03:36.699Z,17.01
2018-04-06T12:06:59.530Z,16.77
2018-04-06T12:10:22.370Z,16.37
2018-04-06T12:13:46.013Z,17.10
2018-04-06T12:17:09.620Z,16.97
2018-04-06T12:20:32.588Z,17.15
2018-04-06T12:23:56.254Z,17.17
2018-04-06T12:27:19.090Z,17.40
2018-04-06T12:30:41.954Z,17.31
2018-04-06T12:34:04.797Z,17.21
2018-04-06T12:37:27.630Z,17.03
2018-04-06T12:40:50.477Z,17.16
2018-04-06T12:44:13.312Z,17.11
2018-04-06T12:47:36.916Z,17.47
2018-04-06T12:50:59.778Z,17.83
2018-04-06T12:54:22.603Z,17.84
2018-04-06T12:57:45.426Z,17.93
2018-04-06T13:01:09.474Z,17.87
2018-04-06T13:04:32.297Z,17.81
2018-04-06T13:07:55.918Z,17.55
2018-04-06T13:11:18.820Z,17.56
2018-04-06T13:14:41.659Z,17.58
2018-04-06T13:18:04.500Z,17.44
2018-04-06T13:21:28.124Z,17.78
2018-04-06T13:24:51.834Z,17.86
2018-04-06T13:28:14.941Z,18.24
2018-04-06T13:31:37.762Z,18.26
2018-04-06T13:35:01.411Z,18.66
2018-04-06T13:38:25.024Z,18.78
2018-04-06T13:41:47.946Z,19.00
2018-04-06T13:45:10.765Z,19.40
2018-04-06T13:48:34.366Z,19.23
2018-04-06T13:51:57.291Z,18.62
2018-04-06T13:55:20.147Z,18.69
2018-04-06T13:58:42.997Z,19.01
2018-04-06T14:02:05.839Z,18.25
2018-04-06T14:05:28.650Z,18.40
2018-04-06T14:08:52.272Z,18.57
2018-04-06T14:12:15.107Z,18.49
2018-04-06T14:15:38.094Z,18.58
2018-04-06T14:19:00.948Z,18.71
2018-04-06T14:22:23.823Z,18.43
2018-04-06T14:25:46.639Z,18.63
2018-04-06T14:29:09.516Z,18.46
2018-04-06T14:32:32.344Z,18.57
2018-04-06T14:35:55.335Z,18.76
2018-04-06T14:39:18.199Z,19.28
2018-04-06T14:42:41.066Z,19.08
2018-04-06T14:46:05.302Z,18.94
2018-04-06T14:49:28.900Z,18.92
2018-04-06T14:52:51.739Z,18.89
2018-04-06T14:56:14.564Z,19.33
2018-04-06T14:59:38.178Z,19.55
2018-04-06T15:03:01.021Z,19.63
2018-04-06T15:06:23.893Z,19.75
2018-04-06T15:09:46.703Z,19.91
2018-04-06T15:13:09.715Z,20.02
2018-04-06T15:16:32.554Z,19.68
2018-04-06T15:19:55.552Z,19.59
2018-04-06T15:23:18.387Z,19.85
2018-04-06T15:26:41.223Z,20.12
2018-04-06T15:30:04.809Z,20.18
2018-04-06T15:33:27.657Z,19.80
2018-04-06T15:36:50.536Z,20.30
2018-04-06T15:40:13.383Z,20.67
2018-04-06T15:43:36.207Z,20.70
2018-04-06T15:46:59.139Z,20.60
2018-04-06T15:50:21.976Z,20.19
2018-04-06T15:53:44.836Z,21.24
2018-04-06T15:57:07.678Z,21.14
2018-04-06T16:00:30.514Z,20.82
2018-04-06T16:03:53.384Z,21.02
2018-04-06T16:07:16.220Z,20.76
2018-04-06T16:10:39.082Z,20.46
2018-04-06T16:14:01.933Z,20.58
2018-04-06T16:17:24.805Z,20.83
2018-04-06T16:20:48.520Z,20.92
2018-04-06T16:24:11.426Z,20.87
2018-04-06T16:27:34.332Z,20.79
2018-04-06T16:30:57.196Z,20.92
2018-04-06T16:34:20.053Z,20.68
2018-04-06T16:37:42.959Z,20.79
2018-04-06T16:41:05.941Z,20.61
2018-04-06T16:44:28.813Z,20.33
2018-04-06T16:47:52.656Z,20.25
2018-04-06T16:51:15.520Z,20.27
2018-04-06T16:54:38.357Z,20.35
2018-04-06T16:58:01.223Z,20.12
2018-04-06T17:01:24.156Z,20.28
2018-04-06T17:04:47.902Z,19.34
2018-04-06T17:08:10.782Z,18.89
2018-04-06T17:14:13.797Z,18.69
2018-04-06T17:19:28.259Z,18.46
2018-04-06T17:22:51.188Z,18.31
2018-04-06T17:26:14.820Z,18.10
2018-04-06T17:29:37.751Z,18.00
2018-04-06T17:33:00.665Z,17.98
2018-04-06T17:36:23.522Z,17.89
2018-04-06T17:39:46.420Z,17.69
2018-04-06T17:43:09.265Z,17.41
2018-04-06T17:46:32.127Z,17.32
2018-04-06T17:49:54.982Z,17.19
2018-04-06T17:53:19.168Z,17.17
2018-04-06T17:56:42.483Z,16.95
2018-04-06T18:00:08.309Z,16.95
2018-04-06T18:03:31.638Z,16.81
2018-04-06T18:06:54.975Z,16.65
2018-04-06T18:10:19.085Z,16.49
2018-04-06T18:13:42.532Z,16.43
2018-04-06T18:17:05.866Z,16.33
2018-04-06T18:20:29.172Z,16.23
2018-04-06T18:23:52.469Z,16.20
2018-04-06T18:27:15.802Z,16.22
2018-04-06T18:30:39.731Z,16.11
2018-04-06T18:34:03.053Z,15.91
2018-04-06T18:37:26.406Z,15.94
2018-04-06T18:40:49.767Z,15.79
2018-04-06T18:44:13.155Z,15.82
2018-04-06T18:47:36.444Z,15.77
2018-04-06T18:50:59.753Z,15.74
2018-04-06T18:54:23.088Z,15.56
2018-04-06T18:57:47.305Z,15.37
2018-04-06T19:01:11.408Z,15.13
2018-04-06T19:04:34.793Z,14.65
2018-04-06T19:07:58.144Z,14.45
2018-04-06T19:11:21.594Z,14.65
2018-04-06T19:14:45.784Z,14.47
2018-04-06T19:18:10.097Z,14.18
2018-04-06T19:21:33.502Z,14.22
2018-04-06T19:25:00.110Z,14.08
2018-04-06T19:28:25.333Z,14.22
2018-04-06T19:31:48.661Z,14.09
2018-04-06T19:35:12.778Z,14.21
2018-04-06T19:38:36.164Z,14.20
2018-04-06T19:42:00.568Z,14.07
2018-04-06T19:45:25.055Z,14.03
2018-04-06T19:48:49.432Z,13.81
2018-04-06T19:52:13.473Z,13.68
2018-04-06T19:55:38.391Z,13.75
2018-04-06T19:59:02.478Z,13.85
2018-04-06T20:02:26.619Z,13.57
2018-04-06T20:05:49.955Z,13.82
2018-04-06T20:09:13.268Z,13.57
2018-04-06T20:12:36.626Z,13.39
2018-04-06T20:16:00.768Z,13.53
2018-04-06T20:19:25.727Z,13.59
2018-04-06T20:22:49.007Z,13.23
2018-04-06T20:26:12.356Z,13.33
2018-04-06T20:29:35.926Z,13.38
2018-04-06T20:32:59.280Z,13.41
2018-04-06T20:36:22.567Z,13.09
2018-04-06T20:39:45.872Z,12.86
2018-04-06T20:43:09.214Z,12.89
2018-04-06T20:46:32.637Z,12.82
2018-04-06T20:49:55.912Z,12.85
2018-04-06T20:53:19.345Z,12.90
2018-04-06T20:56:42.931Z,12.85
2018-04-06T21:00:06.369Z,13.35
2018-04-06T21:03:29.729Z,13.49
2018-04-06T21:06:53.051Z,13.46
2018-04-06T21:10:17.161Z,13.40
2018-04-06T21:13:40.514Z,13.57
2018-04-06T21:17:03.926Z,13.60
2018-04-06T21:20:27.240Z,13.77
2018-04-06T21:23:50.638Z,13.57
2018-04-06T21:27:13.956Z,13.60
2018-04-06T21:30:37.280Z,13.39
2018-04-06T21:34:00.623Z,13.25
2018-04-06T21:37:24.810Z,13.26
2018-04-06T21:40:48.205Z,13.12
2018-04-06T21:44:12.267Z,13.16
2018-04-06T21:47:35.635Z,13.10
2018-04-06T21:50:58.986Z,12.78
2018-04-06T21:54:22.338Z,12.99
2018-04-06T21:57:45.673Z,13.10
2018-04-06T22:01:09.126Z,12.89
2018-04-06T22:04:32.483Z,12.91
2018-04-06T22:07:56.011Z,12.86
2018-04-06T22:11:20.140Z,12.89
2018-04-06T22:14:43.561Z,12.71
2018-04-06T22:18:06.888Z,12.59
2018-04-06T22:21:30.282Z,12.59
2018-04-06T22:24:53.645Z,12.49
2018-04-06T22:28:17.018Z,12.39
2018-04-06T22:31:41.078Z,12.35
2018-04-06T22:35:04.476Z,12.41
2018-04-06T22:38:28.572Z,12.17
2018-04-06T22:41:51.870Z,12.09
2018-04-06T22:45:15.207Z,12.33
2018-04-06T22:48:38.507Z,12.04
2018-04-06T22:52:01.795Z,11.88
2018-04-06T22:55:25.068Z,11.81
2018-04-06T22:58:48.361Z,11.77
2018-04-06T23:02:11.657Z,11.83
2018-04-06T23:05:35.011Z,11.84
2018-04-06T23:08:58.355Z,11.85
2018-04-06T23:12:21.655Z,11.68
2018-04-06T23:15:44.992Z,11.71
2018-04-06T23:19:08.302Z,11.56
2018-04-06T23:22:31.634Z,11.39
2018-04-06T23:25:54.920Z,11.52
2018-04-06T23:29:18.197Z,11.28
2018-04-06T23:32:41.512Z,11.28
2018-04-06T23:36:04.848Z,11.30
2018-04-06T23:39:28.289Z,11.13
2018-04-06T23:42:51.652Z,11.16
2018-04-06T23:46:15.058Z,10.77
2018-04-06T23:49:38.346Z,10.83
2018-04-06T23:53:01.716Z,10.86
2018-04-06T23:56:25.240Z,10.83
2018-04-06T23:59:49.279Z,10.77
